createdAt,value
2022-12-03T00:00:51.117Z,15.43
2022-12-03T00:05:52.706Z,14.98
2022-12-03T00:10:54.283Z,15.50
2022-12-03T00:15:56.205Z,17.30
2022-12-03T00:20:57.859Z,16.67
2022-12-03T00:25:59.435Z,17.17
2022-12-03T00:31:01.075Z,17.95
2022-12-03T00:36:02.738Z,18.27
2022-12-03T00:41:04.415Z,19.08
2022-12-03T00:46:06.246Z,19.75
2022-12-03T00:51:07.905Z,17.92
2022-12-03T00:56:09.556Z,19.98
2022-12-03T01:01:11.133Z,20.77
2022-12-03T01:06:12.728Z,19.42
2022-12-03T01:11:33.143Z,20.02
2022-12-03T01:16:35.310Z,19.25
2022-12-03T01:21:37.745Z,20.67
2022-12-03T01:26:39.459Z,18.92
2022-12-03T01:31:59.643Z,20.23
2022-12-03T01:37:01.269Z,17.75
2022-12-03T01:42:03.326Z,17.65
2022-12-03T01:47:07.565Z,18.25
2022-12-03T01:52:14.284Z,17.98
2022-12-03T01:57:35.740Z,18.35
2022-12-03T02:02:37.320Z,18.40
2022-12-03T02:07:38.977Z,16.73
2022-12-03T02:12:48.080Z,15.20
2022-12-03T02:17:50.338Z,16.40
2022-12-03T02:23:36.060Z,14.20
2022-12-03T02:28:38.510Z,14.00
2022-12-03T02:33:40.183Z,13.73
2022-12-03T02:38:43.646Z,13.35
2022-12-03T02:43:45.264Z,12.52
2022-12-03T02:48:46.876Z,13.57
2022-12-03T02:53:50.683Z,12.20
2022-12-03T02:58:55.125Z,13.25
2022-12-03T03:03:58.045Z,11.52
2022-12-03T03:08:59.671Z,13.13
2022-12-03T03:14:02.713Z,10.52
2022-12-03T03:19:04.498Z,11.20
2022-12-03T03:24:06.457Z,11.98
2022-12-03T03:29:08.259Z,12.32
2022-12-03T03:34:10.554Z,12.00
2022-12-03T03:39:12.916Z,11.32
2022-12-03T03:44:14.616Z,11.70
2022-12-03T03:49:16.371Z,12.00
2022-12-03T03:54:18.232Z,11.93
2022-12-03T03:59:19.871Z,11.70
2022-12-03T04:04:23.822Z,10.60
2022-12-03T04:09:25.473Z,11.55
2022-12-03T04:14:27.105Z,10.75
2022-12-03T04:19:28.696Z,11.30
2022-12-03T04:24:30.293Z,11.23
2022-12-03T04:29:31.907Z,11.60
2022-12-03T04:34:52.624Z,11.25
2022-12-03T04:39:54.606Z,10.75
2022-12-03T04:44:58.421Z,11.88
2022-12-03T04:50:00.022Z,11.27
2022-12-03T04:55:01.665Z,12.05
2022-12-03T05:00:05.111Z,10.82
2022-12-03T05:05:07.077Z,11.35
2022-12-03T05:10:10.247Z,11.60
2022-12-03T05:15:11.848Z,11.70
2022-12-03T05:20:32.707Z,10.52
2022-12-03T05:25:34.348Z,11.70
2022-12-03T05:30:36.252Z,11.60
2022-12-03T05:35:38.592Z,11.90
2022-12-03T05:40:40.525Z,12.85
2022-12-03T05:45:44.383Z,13.13
2022-12-03T05:50:46.964Z,13.15
2022-12-03T05:55:48.562Z,12.60
2022-12-03T06:00:50.156Z,12.00
2022-12-03T06:05:51.773Z,12.38
2022-12-03T06:10:53.388Z,11.48
2022-12-03T06:15:55.181Z,11.73
2022-12-03T06:20:56.792Z,11.65
2022-12-03T06:25:58.555Z,11.43
2022-12-03T06:31:00.253Z,12.02
2022-12-03T06:36:01.920Z,12.40
2022-12-03T06:41:03.702Z,12.15
2022-12-03T06:46:05.584Z,11.45
2022-12-03T06:51:07.281Z,12.50
2022-12-03T06:56:08.888Z,11.57
2022-12-03T07:01:10.738Z,12.68
2022-12-03T07:06:12.704Z,12.15
2022-12-03T07:11:32.684Z,11.82
2022-12-03T07:16:35.549Z,12.48
2022-12-03T07:21:37.476Z,12.80
2022-12-03T07:26:39.284Z,11.55
2022-12-03T07:31:42.615Z,12.77
2022-12-03T07:36:44.259Z,12.52
2022-12-03T07:41:45.857Z,12.45
2022-12-03T07:46:47.555Z,12.73
2022-12-03T07:51:54.301Z,14.13
2022-12-03T07:57:01.175Z,13.60
2022-12-03T08:02:03.619Z,12.88
2022-12-03T08:07:06.108Z,13.52
2022-12-03T08:12:17.212Z,14.02
2022-12-03T08:17:19.870Z,14.52
2022-12-03T08:22:22.322Z,14.68
2022-12-03T08:27:23.988Z,14.63
2022-12-03T08:32:25.595Z,15.07
2022-12-03T08:37:27.219Z,15.30
2022-12-03T08:42:42.008Z,15.73
2022-12-03T08:47:43.599Z,15.48
2022-12-03T08:52:45.211Z,15.65
2022-12-03T08:57:46.938Z,16.08
2022-12-03T09:02:52.361Z,16.02
2022-12-03T09:07:54.127Z,16.10
2022-12-03T09:12:55.802Z,16.92
2022-12-03T09:17:57.435Z,17.80
2022-12-03T09:22:59.029Z,17.58
2022-12-03T09:28:00.676Z,17.27
2022-12-03T09:33:02.574Z,20.25
2022-12-03T09:38:04.172Z,18.33
2022-12-03T09:43:07.146Z,17.52
2022-12-03T09:48:10.302Z,17.90
2022-12-03T09:53:17.864Z,18.42
2022-12-03T09:58:20.819Z,18.88
2022-12-03T10:03:29.980Z,19.15
2022-12-03T10:08:33.352Z,20.23
2022-12-03T10:13:37.687Z,19.27
2022-12-03T10:18:43.238Z,19.45
2022-12-03T10:23:49.515Z,20.90
2022-12-03T10:28:56.836Z,20.20
2022-12-03T10:33:58.556Z,21.45
2022-12-03T10:39:14.444Z,21.45
2022-12-03T10:44:21.768Z,21.85
2022-12-03T10:49:23.357Z,28.33
2022-12-03T10:54:27.682Z,23.85
2022-12-03T10:59:33.300Z,29.90
2022-12-03T11:04:36.466Z,21.90
2022-12-03T11:09:38.300Z,26.17
2022-12-03T11:14:52.590Z,27.55
2022-12-03T11:19:54.690Z,22.50
2022-12-03T11:25:27.182Z,23.35
2022-12-03T11:30:48.856Z,43.88
2022-12-03T11:36:02.662Z,21.95
2022-12-03T11:41:24.360Z,22.60
2022-12-03T11:46:43.553Z,22.55
2022-12-03T11:51:45.308Z,22.13
2022-12-03T11:56:51.463Z,21.27
2022-12-03T12:01:53.080Z,22.45
2022-12-03T12:06:54.673Z,22.92
2022-12-03T12:11:56.283Z,21.30
2022-12-03T12:16:58.524Z,22.70
2022-12-03T12:22:12.558Z,22.33
2022-12-03T12:27:32.467Z,21.83
2022-12-03T12:32:44.321Z,21.38
2022-12-03T12:38:11.377Z,22.25
2022-12-03T12:43:26.420Z,22.63
2022-12-03T12:48:39.748Z,22.27
2022-12-03T12:53:45.405Z,21.98
2022-12-03T12:58:47.022Z,21.88
2022-12-03T13:03:51.932Z,21.88
2022-12-03T13:08:54.452Z,21.25
2022-12-03T13:13:56.313Z,21.98
2022-12-03T13:19:00.817Z,22.27
2022-12-03T13:24:03.598Z,23.40
2022-12-03T13:29:16.938Z,21.50
2022-12-03T13:34:24.617Z,22.27
2022-12-03T13:39:32.507Z,22.52
2022-12-03T13:44:36.654Z,22.40
2022-12-03T13:49:38.330Z,23.08
2022-12-03T13:54:40.029Z,21.85
2022-12-03T13:59:41.722Z,21.35
2022-12-03T14:04:43.348Z,21.55
2022-12-03T14:09:44.959Z,20.75
2022-12-03T14:14:46.619Z,21.98
2022-12-03T14:19:48.303Z,22.83
2022-12-03T14:24:50.384Z,23.38
2022-12-03T14:29:52.599Z,22.45
2022-12-03T14:34:54.565Z,22.15
2022-12-03T14:39:56.457Z,22.73
2022-12-03T14:44:58.410Z,23.00
2022-12-03T14:50:00.011Z,22.27
2022-12-03T14:55:01.995Z,21.98
2022-12-03T15:00:07.573Z,23.08
2022-12-03T15:05:09.571Z,23.80
2022-12-03T15:10:11.322Z,23.65
2022-12-03T15:15:12.926Z,24.55
2022-12-03T15:20:14.725Z,24.77
2022-12-03T15:25:24.157Z,22.48
2022-12-03T15:30:25.859Z,24.27
2022-12-03T15:35:27.456Z,24.05
2022-12-03T15:40:29.081Z,24.08
2022-12-03T15:45:30.690Z,25.00
2022-12-03T15:50:35.789Z,25.25
2022-12-03T15:55:41.437Z,24.02
2022-12-03T16:00:43.055Z,23.92
2022-12-03T16:05:44.662Z,24.80
2022-12-03T16:10:46.330Z,24.02
2022-12-03T16:15:48.128Z,24.65
2022-12-03T16:20:49.915Z,24.67
2022-12-03T16:25:51.552Z,25.08
2022-12-03T16:30:53.601Z,25.25
2022-12-03T16:35:55.350Z,25.05
2022-12-03T16:40:57.748Z,24.90
2022-12-03T16:46:02.887Z,24.40
2022-12-03T16:51:04.879Z,24.52
2022-12-03T16:56:06.540Z,23.58
2022-12-03T17:01:08.643Z,24.77
2022-12-03T17:06:10.358Z,23.50
2022-12-03T17:11:12.061Z,25.05
2022-12-03T17:16:13.800Z,23.98
2022-12-03T17:21:15.528Z,23.75
2022-12-03T17:26:20.416Z,23.67
2022-12-03T17:31:22.091Z,25.60
2022-12-03T17:36:24.909Z,25.15
2022-12-03T17:41:26.836Z,25.00
2022-12-03T17:46:28.537Z,25.08
2022-12-03T17:51:30.656Z,24.27
2022-12-03T17:56:32.890Z,24.60
2022-12-03T18:01:34.601Z,23.30
2022-12-03T18:06:36.647Z,25.30
2022-12-03T18:11:38.349Z,24.35
2022-12-03T18:16:40.361Z,24.30
2022-12-03T18:21:42.145Z,23.70
2022-12-03T18:26:43.783Z,24.02
2022-12-03T18:31:45.508Z,23.60
2022-12-03T18:36:49.663Z,25.13
2022-12-03T18:41:52.238Z,24.50
2022-12-03T18:46:55.988Z,23.98
2022-12-03T18:51:59.767Z,24.65
2022-12-03T18:57:01.544Z,24.65
2022-12-03T19:02:03.348Z,23.85
2022-12-03T19:07:05.108Z,23.88
2022-12-03T19:12:14.288Z,24.52
2022-12-03T19:17:16.385Z,23.27
2022-12-03T19:22:17.981Z,23.58
2022-12-03T19:27:19.583Z,24.08
2022-12-03T19:32:21.216Z,23.80
2022-12-03T19:37:22.845Z,25.05
2022-12-03T19:42:24.534Z,24.02
2022-12-03T19:47:26.394Z,24.52
2022-12-03T19:52:28.027Z,24.63
2022-12-03T19:57:29.608Z,25.10
2022-12-03T20:02:31.279Z,25.42
2022-12-03T20:07:33.100Z,24.27
2022-12-03T20:12:34.702Z,24.13
2022-12-03T20:17:36.889Z,24.25
2022-12-03T20:22:38.955Z,24.60
2022-12-03T20:27:40.697Z,25.08
2022-12-03T20:32:45.499Z,25.10
2022-12-03T20:37:47.459Z,24.10
2022-12-03T20:42:49.211Z,24.55
2022-12-03T20:47:50.803Z,24.15
2022-12-03T20:53:16.276Z,24.67
2022-12-03T21:03:16.875Z,22.60
2022-12-03T21:08:34.032Z,23.70
2022-12-03T21:18:43.972Z,23.70
2022-12-03T21:23:45.709Z,22.10
2022-12-03T21:28:49.644Z,22.48
2022-12-03T21:33:54.762Z,22.55
2022-12-03T21:38:56.484Z,22.85
2022-12-03T21:43:58.766Z,22.98
2022-12-03T21:49:01.148Z,22.30
2022-12-03T21:54:03.229Z,23.05
2022-12-03T21:59:04.829Z,21.95
2022-12-03T22:04:06.473Z,23.20
2022-12-03T22:09:08.062Z,21.70
2022-12-03T22:14:10.000Z,20.92
2022-12-03T22:19:11.587Z,20.83
2022-12-03T22:24:13.269Z,21.02
2022-12-03T22:29:15.086Z,20.10
2022-12-03T22:34:16.708Z,21.83
2022-12-03T22:39:18.328Z,20.48
2022-12-03T22:44:20.134Z,21.10
2022-12-03T22:49:21.734Z,20.60
2022-12-03T22:54:24.337Z,20.10
2022-12-03T22:59:26.056Z,20.17
2022-12-03T23:04:27.645Z,20.45
2022-12-03T23:09:29.321Z,20.30
2022-12-03T23:14:30.968Z,21.15
2022-12-03T23:19:32.663Z,20.05
2022-12-03T23:24:34.375Z,20.20
2022-12-03T23:29:35.978Z,20.27
2022-12-03T23:34:37.589Z,19.45
2022-12-03T23:39:39.307Z,20.48
2022-12-03T23:44:40.926Z,18.63
2022-12-03T23:49:42.571Z,19.38
2022-12-03T23:54:44.209Z,19.10
2022-12-03T23:59:45.792Z,19.48
